Terminal Aerodrome Forecast
Issued by NWS Jacksonville, FL

Home | Current Version | Previous Version | Text Only | Print | Product List | Glossary On
Versions: 1 2 3 4 5 6 7 8 9 10 11 12 13 14 15 16 17 18 19 20 21 22
000
FTUS42 KJAX 292349
TAFSSI
TAF
KSSI 292349Z 3000/3024 22006KT P6SM SCT250
     FM301400 25008KT P6SM SCT035 SCT250
     FM301900 17011KT P6SM VCTS SCT045CB BKN150 BKN250=

USA.gov is the U.S. government's official web portal to all federal, state and local government web resources and services.